Time;durP1;ratioP1;P1;durP2;ratioP2;P2;SDS_P1;SDS_P2;PMS_P1;PMS_P2;Temp;Humidity;BMP_temperature;BMP_pressure;BME280_temperature;BME280_humidity;BME280_pressure;Samples;Min_cycle;Max_cycle;Signal;HPM_P1;HPM_P2
2023/01/29 09:32:29;;;;;;;;;;;;;;;-1.49;100.00;97271.03;4828655;28;21248;-89
2023/01/29 09:35:04;;;;;;;;;;;;;;;-1.53;100.00;97268.66;4827136;28;20012;-90
2023/01/29 09:37:33;;;;;;;;;;;;;;;-1.36;100.00;97276.56;4883469;28;20366;-91
2023/01/29 09:39:59;;;;;;;;;;;;;;;-1.35;100.00;97275.66;4936353;28;19921;-90
2023/01/29 09:42:31;;;;;;;;;;;;;;;-1.32;100.00;97269.53;4984830;28;19948;-91
2023/01/29 09:45:28;;;;;;;;;;;;;;;-1.25;100.00;97264.06;5008397;28;19913;-90
2023/01/29 09:48:01;;;;;;;;;;;;;;;-1.19;100.00;97261.25;4990180;28;19913;-90
2023/01/29 09:50:49;;;;;;;;;;;;;;;-1.13;100.00;97257.59;4992119;28;19913;-90
2023/01/29 09:53:26;;;;;;;;;;;;;;;-1.05;100.00;97257.25;5006761;28;19920;-92
2023/01/29 10:04:40;;;;;;;;;;;;;;;-1.07;100.00;97220.38;6016477;23;20729;-88
2023/01/29 10:07:21;;;;;;;;;;;;;;;-0.83;100.00;97223.66;4930724;28;19906;-88
2023/01/29 10:09:53;;;;;;;;;;;;;;;-0.66;100.00;97222.94;4931267;28;19914;-89
2023/01/29 10:12:29;;;;;;;;;;;;;;;-0.49;100.00;97217.88;4875437;28;20003;-88
2023/01/29 10:15:16;;;;;;;;;;;;;;;-0.36;100.00;97210.41;4886385;28;19930;-89
2023/01/29 10:18:02;;;;;;;;;;;;;;;-0.46;100.00;97207.41;4850575;28;19922;-88
2023/01/29 10:20:46;;;;;;;;;;;;;;;0.05;100.00;97198.19;4879673;28;19968;-86
2023/01/29 10:23:11;;;;;;;;;;;;;;;-0.02;100.00;97186.47;4880771;28;20047;-87
2023/01/29 10:25:40;;;;;;;;;;;;;;;-0.06;100.00;97184.94;4895113;28;21165;-86
2023/01/29 10:28:17;;;;;;;;;;;;;;;-0.06;100.00;97178.00;4890581;28;19936;-86
2023/01/29 10:30:54;;;;;;;;;;;;;;;-0.20;100.00;97184.69;4887523;28;19914;-86
2023/01/29 10:33:42;;;;;;;;;;;;;;;-0.08;100.00;97186.72;4905087;28;19925;-86
2023/01/29 10:36:12;;;;;;;;;;;;;;;0.10;100.00;97190.19;4897743;28;20501;-87
2023/01/29 10:38:42;;;;;;;;;;;;;;;-0.04;100.00;97190.84;4948105;28;19914;-82
2023/01/29 10:44:22;;;;;;;;;;;;;;;-0.11;100.00;97197.22;4970153;28;19918;-84
2023/01/29 10:47:02;;;;;;;;;;;;;;;-0.03;100.00;97189.97;4956005;28;20617;-84
2023/01/29 10:52:40;;;;;;;;;;;;;;;0.07;100.00;97203.28;4966381;28;19922;-85
2023/01/29 10:55:14;;;;;;;;;;;;;;;0.10;100.00;97188.47;4938674;28;20377;-85
2023/01/29 10:57:46;;;;;;;;;;;;;;;0.01;100.00;97183.72;4977486;28;19964;-84
2023/01/29 11:00:20;;;;;;;;;;;;;;;0.05;100.00;97190.44;4971988;28;20366;-85
2023/01/29 11:02:47;;;;;;;;;;;;;;;0.08;100.00;97184.28;4963782;28;19929;-84
2023/01/29 11:05:19;;;;;;;;;;;;;;;-0.05;100.00;97184.00;4959021;28;19917;-86
2023/01/29 11:07:45;;;;;;;;;;;;;;;0.10;100.00;97187.63;4966459;28;19922;-83
2023/01/29 11:10:15;;;;;;;;;;;;;;;0.16;100.00;97183.00;4980425;28;19921;-85
2023/01/29 11:12:43;;;;;;;;;;;;;;;0.15;100.00;97180.50;4943245;28;20417;-89
2023/01/29 11:15:21;;;;;;;;;;;;;;;0.10;100.00;97182.44;4981305;28;20324;-91
2023/01/29 11:18:09;;;;;;;;;;;;;;;0.21;100.00;97175.88;4973748;28;20733;-85
2023/01/29 11:20:58;;;;;;;;;;;;;;;0.06;100.00;97181.75;4957767;28;20294;-86
2023/01/29 11:23:31;;;;;;;;;;;;;;;0.21;100.00;97175.88;4962529;28;20513;-84
2023/01/29 11:25:57;;;;;;;;;;;;;;;0.16;100.00;97177.00;4959166;28;19914;-84
2023/01/29 11:28:50;;;;;;;;;;;;;;;0.08;100.00;97166.19;4986389;28;19914;-84
2023/01/29 11:31:26;;;;;;;;;;;;;;;0.18;100.00;97162.25;4978334;28;19993;-84
2023/01/29 11:37:24;;;;;;;;;;;;;;;0.08;100.00;97166.19;4975739;28;20330;-91
2023/01/29 11:40:00;;;;;;;;;;;;;;;0.22;100.00;97159.44;4973099;28;19929;-84
2023/01/29 11:42:29;;;;;;;;;;;;;;;0.18;100.00;97157.91;4974746;28;19917;-85
2023/01/29 11:44:55;;;;;;;;;;;;;;;0.13;100.00;97154.69;4982234;28;19969;-84
2023/01/29 11:47:25;;;;;;;;;;;;;;;0.34;100.00;97152.00;4945138;28;20012;-82
2023/01/29 11:50:01;;;;;;;;;;;;;;;0.29;100.00;97128.94;4979173;28;19913;-83
2023/01/29 11:52:37;;;;;;;;;;;;;;;0.39;100.00;97132.75;4953209;28;19972;-82
2023/01/29 11:55:12;;;;;;;;;;;;;;;0.38;100.00;97136.25;4974653;28;19981;-82
2023/01/29 11:57:55;;;;;;;;;;;;;;;0.27;100.00;97129.91;4978095;28;19917;-82
2023/01/29 12:00:25;;;;;;;;;;;;;;;0.21;100.00;97123.31;4940870;28;20370;-83
2023/01/29 12:02:55;;;;;;;;;;;;;;;0.21;100.00;97116.38;4957401;28;19918;-83
2023/01/29 12:05:25;;;;;;;;;;;;;;;0.20;100.00;97112.13;4953354;28;20362;-83
2023/01/29 12:07:52;;;;;;;;;;;;;;;0.07;100.00;97111.03;4971863;28;20400;-84
2023/01/29 12:10:31;;;;;;;;;;;;;;;0.12;100.00;97098.72;4968451;28;19914;-88
2023/01/29 12:13:23;;;;;;;;;;;;;;;0.09;100.00;97092.84;4950200;28;19989;-82
2023/01/29 12:15:48;;;;;;;;;;;;;;;-0.08;100.00;97085.91;4965251;28;19914;-81
2023/01/29 12:18:32;;;;;;;;;;;;;;;-0.09;100.00;97076.47;4990074;28;20400;-82
2023/01/29 12:21:00;;;;;;;;;;;;;;;0.12;100.00;97067.66;4954478;28;19921;-81
2023/01/29 12:23:47;;;;;;;;;;;;;;;0.21;100.00;97062.06;4970519;28;20324;-82
2023/01/29 12:26:16;;;;;;;;;;;;;;;0.34;100.00;97056.28;4968123;28;19914;-85
2023/01/29 12:28:50;;;;;;;;;;;;;;;0.25;100.00;97061.91;4951744;28;20147;-82
2023/01/29 12:31:50;;;;;;;;;;;;;;;0.29;100.00;97050.50;4952324;28;19920;-83
2023/01/29 12:34:34;;;;;;;;;;;;;;;0.29;100.00;97045.31;4969478;28;19918;-80
2023/01/29 12:36:59;;;;;;;;;;;;;;;0.24;100.00;97040.38;4965146;28;19990;-83
2023/01/29 12:39:26;;;;;;;;;;;;;;;0.52;100.00;97039.00;4948108;28;19921;-86
2023/01/29 12:41:54;;;;;;;;;;;;;;;0.49;100.00;97044.31;4954454;28;19918;-81
2023/01/29 12:44:24;;;;;;;;;;;;;;;0.56;100.00;97043.91;4938591;28;19916;-81
2023/01/29 12:46:59;;;;;;;;;;;;;;;0.31;100.00;97051.25;4968298;28;19945;-81
2023/01/29 12:49:27;;;;;;;;;;;;;;;0.31;100.00;97043.50;4967263;28;20337;-82
2023/01/29 12:51:56;;;;;;;;;;;;;;;0.57;100.00;97050.78;4971408;28;19929;-83
2023/01/29 12:58:07;;;;;;;;;;;;;;;0.20;100.00;97029.34;4963780;28;19925;-81
2023/01/29 13:00:42;;;;;;;;;;;;;;;0.22;100.00;97021.50;4961297;28;19921;-83
2023/01/29 13:03:31;;;;;;;;;;;;;;;0.15;100.00;97018.38;4984642;28;19918;-84
2023/01/29 13:06:16;;;;;;;;;;;;;;;0.10;100.00;97016.94;4978772;28;20392;-83
2023/01/29 13:08:52;;;;;;;;;;;;;;;0.13;100.00;97015.03;4965647;28;20305;-87
2023/01/29 13:11:40;;;;;;;;;;;;;;;0.12;100.00;97018.53;4979888;28;19960;-83
2023/01/29 13:14:12;;;;;;;;;;;;;;;0.05;100.00;97014.56;4972243;28;20297;-83
2023/01/29 13:16:41;;;;;;;;;;;;;;;-0.08;100.00;97018.69;4977137;28;20410;-84
2023/01/29 13:19:20;;;;;;;;;;;;;;;-0.06;100.00;97022.03;4975315;28;19960;-83
2023/01/29 13:21:47;;;;;;;;;;;;;;;0.14;100.00;97023.66;4968829;28;20004;-85
2023/01/29 13:24:16;;;;;;;;;;;;;;;0.17;100.00;97019.16;4970068;28;19925;-84
2023/01/29 13:26:46;;;;;;;;;;;;;;;0.14;100.00;97010.72;4949867;28;20574;-84
2023/01/29 13:29:26;;;;;;;;;;;;;;;0.20;100.00;97008.66;4960945;28;19953;-84
2023/01/29 13:31:53;;;;;;;;;;;;;;;0.25;100.00;97017.94;4977925;28;19921;-86
2023/01/29 13:34:18;;;;;;;;;;;;;;;0.20;100.00;97015.56;4973641;28;19914;-83
2023/01/29 13:36:55;;;;;;;;;;;;;;;0.38;100.00;97013.81;4982866;28;19925;-84
2023/01/29 13:39:45;;;;;;;;;;;;;;;0.38;100.00;97003.47;4971052;28;19913;-83
2023/01/29 13:42:22;;;;;;;;;;;;;;;0.30;100.00;97009.00;4979563;28;19914;-84
2023/01/29 13:44:53;;;;;;;;;;;;;;;0.21;100.00;97010.31;4962887;28;20011;-84
2023/01/29 13:47:33;;;;;;;;;;;;;;;0.21;100.00;97009.50;4972329;28;19929;-83
2023/01/29 13:50:01;;;;;;;;;;;;;;;0.14;100.00;97013.31;4986793;28;19917;-84
2023/01/29 13:52:39;;;;;;;;;;;;;;;0.05;100.00;97014.56;4966675;28;20577;-83
2023/01/29 13:55:08;;;;;;;;;;;;;;;0.22;100.00;97014.56;4979816;28;19940;-83
2023/01/29 13:57:42;;;;;;;;;;;;;;;0.23;100.00;97018.00;4977211;28;19927;-83
2023/01/29 14:00:20;;;;;;;;;;;;;;;0.25;100.00;97017.94;4949163;28;19940;-83
2023/01/29 14:02:47;;;;;;;;;;;;;;;0.38;100.00;97016.41;4956085;28;19921;-85
2023/01/29 14:05:34;;;;;;;;;;;;;;;0.19;100.00;97019.91;4965966;28;19925;-83
2023/01/29 14:11:16;;;;;;;;;;;;;;;0.09;100.00;97016.09;4980818;28;19968;-84
2023/01/29 14:14:04;;;;;;;;;;;;;;;-0.04;100.00;97018.44;4979375;28;19957;-84
2023/01/29 14:16:37;;;;;;;;;;;;;;;0.10;100.00;97012.63;4992971;28;19917;-91
2023/01/29 14:19:05;;;;;;;;;;;;;;;0.18;100.00;97007.88;4988762;28;19914;-90
2023/01/29 14:21:32;;;;;;;;;;;;;;;0.09;100.00;97010.91;4979043;28;19949;-91
2023/01/29 14:24:06;;;;;;;;;;;;;;;-0.03;100.00;97021.88;5002643;28;19977;-91
2023/01/29 14:26:42;;;;;;;;;;;;;;;0.06;100.00;97021.41;4987742;28;19929;-91
2023/01/29 14:29:27;;;;;;;;;;;;;;;-0.16;100.00;97011.31;4969640;28;19922;-91
2023/01/29 14:32:25;;;;;;;;;;;;;;;-0.13;100.00;97005.97;4964523;28;19918;-91
2023/01/29 14:34:53;;;;;;;;;;;;;;;-0.10;100.00;97003.25;4948897;28;19914;-84
2023/01/29 14:37:25;;;;;;;;;;;;;;;-0.15;100.00;96999.22;4972047;28;20347;-84
2023/01/29 14:39:58;;;;;;;;;;;;;;;-0.22;100.00;96996.09;4969742;28;19913;-84
2023/01/29 14:45:29;;;;;;;;;;;;;;;-0.30;100.00;97000.81;4973946;28;19917;-84
2023/01/29 14:48:00;;;;;;;;;;;;;;;-0.50;100.00;97009.50;4968395;28;20016;-84
2023/01/29 14:50:41;;;;;;;;;;;;;;;-0.45;100.00;97010.09;4946437;28;20381;-84
2023/01/29 14:53:13;;;;;;;;;;;;;;;-0.44;100.00;97009.19;4961085;28;19933;-84
2023/01/29 14:56:00;;;;;;;;;;;;;;;-0.51;100.00;97003.47;4938417;28;19994;-83
2023/01/29 14:58:36;;;;;;;;;;;;;;;-0.45;100.00;97010.09;4948983;28;20347;-83
2023/01/29 15:01:04;;;;;;;;;;;;;;;-0.34;100.00;97005.25;4947460;28;19921;-83
2023/01/29 15:03:35;;;;;;;;;;;;;;;-0.31;100.00;97001.69;4968982;28;19921;-84
2023/01/29 15:06:09;;;;;;;;;;;;;;;-0.33;100.00;97004.34;4965738;28;21089;-83
2023/01/29 15:08:34;;;;;;;;;;;;;;;-0.34;100.00;96997.50;4972721;28;19918;-83
2023/01/29 15:11:35;;;;;;;;;;;;;;;-0.35;100.00;96989.81;4957196;28;20278;-84
2023/01/29 15:14:05;;;;;;;;;;;;;;;-0.55;100.00;97001.09;4952112;28;19922;-84
2023/01/29 15:16:49;;;;;;;;;;;;;;;-0.49;100.00;97004.25;4961803;28;19960;-83
2023/01/29 15:19:24;;;;;;;;;;;;;;;-0.37;100.00;96995.09;4953443;28;19914;-84
2023/01/29 15:22:07;;;;;;;;;;;;;;;-0.54;100.00;96987.28;4961048;28;19928;-84
2023/01/29 15:24:35;;;;;;;;;;;;;;;-0.47;100.00;96978.31;4973672;28;19914;-83
2023/01/29 15:27:04;;;;;;;;;;;;;;;-0.49;100.00;96987.91;4974136;28;19914;-84
2023/01/29 15:29:31;;;;;;;;;;;;;;;-0.64;100.00;96983.44;4952698;28;19910;-84
2023/01/29 15:31:57;;;;;;;;;;;;;;;-0.64;100.00;96975.69;4979596;28;19924;-84
2023/01/29 15:34:41;;;;;;;;;;;;;;;-0.58;100.00;96973.66;4963275;28;19914;-84
2023/01/29 15:37:26;;;;;;;;;;;;;;;-0.65;100.00;96977.47;4973750;28;19918;-84
2023/01/29 15:39:52;;;;;;;;;;;;;;;-0.60;100.00;96969.50;4984763;28;19972;-85
2023/01/29 15:42:24;;;;;;;;;;;;;;;-0.73;100.00;96970.06;4972788;28;19949;-84
2023/01/29 15:44:59;;;;;;;;;;;;;;;-0.84;100.00;96982.66;4979565;28;20043;-83
2023/01/29 15:47:40;;;;;;;;;;;;;;;-0.85;100.00;96986.13;4956051;28;19921;-84
2023/01/29 15:50:06;;;;;;;;;;;;;;;-0.84;100.00;96993.00;4968187;28;19913;-84
2023/01/29 15:52:33;;;;;;;;;;;;;;;-0.93;100.00;96990.81;4974848;28;19972;-84
2023/01/29 15:55:02;;;;;;;;;;;;;;;-1.01;100.00;96988.56;4977608;28;20020;-84
2023/01/29 15:57:42;;;;;;;;;;;;;;;-1.03;100.00;96984.41;4958745;28;20354;-84
2023/01/29 16:00:18;;;;;;;;;;;;;;;-0.90;100.00;96993.28;4954692;28;19941;-84
2023/01/29 16:02:45;;;;;;;;;;;;;;;-1.06;100.00;96992.28;4959005;28;19924;-85
2023/01/29 16:05:13;;;;;;;;;;;;;;;-1.06;100.00;96997.44;4977695;28;20446;-84
2023/01/29 16:07:38;;;;;;;;;;;;;;;-1.09;100.00;96998.41;4982201;28;19992;-83
2023/01/29 16:10:06;;;;;;;;;;;;;;;-0.93;100.00;96990.81;4970701;28;20719;-83
2023/01/29 16:12:32;;;;;;;;;;;;;;;-1.09;100.00;96997.59;4959567;28;19921;-84
2023/01/29 16:14:59;;;;;;;;;;;;;;;-1.11;100.00;96994.22;4977464;28;20360;-83
2023/01/29 16:17:35;;;;;;;;;;;;;;;-1.25;100.00;96995.69;4969900;28;19914;-83
2023/01/29 16:20:04;;;;;;;;;;;;;;;-1.27;100.00;96989.75;4976143;28;19938;-83
2023/01/29 16:22:36;;;;;;;;;;;;;;;-1.33;100.00;96995.19;4974909;28;19918;-84
2023/01/29 16:25:06;;;;;;;;;;;;;;;-1.32;100.00;96991.69;4978174;28;19929;-82
2023/01/29 16:27:47;;;;;;;;;;;;;;;-1.35;100.00;96999.56;4982467;28;19918;-83
2023/01/29 16:30:15;;;;;;;;;;;;;;;-1.49;100.00;97001.91;4952593;28;19921;-83
2023/01/29 16:32:43;;;;;;;;;;;;;;;-1.56;100.00;96997.94;4962721;28;20338;-83
2023/01/29 16:35:17;;;;;;;;;;;;;;;-1.54;100.00;96993.53;4971349;28;20004;-84
2023/01/29 16:37:46;;;;;;;;;;;;;;;-1.61;100.00;97005.03;4981410;28;19917;-83
2023/01/29 16:40:13;;;;;;;;;;;;;;;-1.63;100.00;96997.38;4987468;28;19914;-83
2023/01/29 16:42:44;;;;;;;;;;;;;;;-1.71;100.00;97000.28;4989941;28;19914;-83
2023/01/29 16:45:28;;;;;;;;;;;;;;;-1.70;100.00;96998.53;4976319;28;20441;-83
2023/01/29 16:48:12;;;;;;;;;;;;;;;-1.74;100.00;96997.81;4974029;28;19925;-83
2023/01/29 16:50:38;;;;;;;;;;;;;;;-1.75;100.00;97005.59;4966595;28;19921;-83
2023/01/29 16:53:33;;;;;;;;;;;;;;;-1.81;100.00;97001.56;4963393;28;19925;-83
2023/01/29 16:56:07;;;;;;;;;;;;;;;-1.88;100.00;97001.88;4933267;28;19929;-83
2023/01/29 16:58:33;;;;;;;;;;;;;;;-1.92;100.00;96996.84;4964073;28;19922;-83
2023/01/29 17:01:03;;;;;;;;;;;;;;;-1.97;100.00;96993.63;4979318;28;19941;-83
2023/01/29 17:03:32;;;;;;;;;;;;;;;-1.93;100.00;96995.19;4954072;28;19920;-82
2023/01/29 17:06:21;;;;;;;;;;;;;;;-1.94;100.00;96997.84;4967901;28;19957;-82
2023/01/29 17:08:47;;;;;;;;;;;;;;;-1.95;100.00;97007.28;4954833;28;19997;-82
2023/01/29 17:11:22;;;;;;;;;;;;;;;-1.70;100.00;97016.59;4974355;28;19960;-82
2023/01/29 17:13:54;;;;;;;;;;;;;;;-1.81;100.00;97018.75;4985777;28;19918;-83
2023/01/29 17:16:26;;;;;;;;;;;;;;;-1.90;100.00;97020.81;4979677;28;19985;-81
2023/01/29 17:18:52;;;;;;;;;;;;;;;-1.94;100.00;97016.72;4957668;28;19924;-85
2023/01/29 17:21:18;;;;;;;;;;;;;;;-2.01;100.00;97012.72;4973576;28;19918;-84
2023/01/29 17:23:44;;;;;;;;;;;;;;;-2.08;100.00;97015.56;4962189;28;19969;-83
2023/01/29 17:26:11;;;;;;;;;;;;;;;-2.14;100.00;97003.81;4991636;28;20408;-84
2023/01/29 17:35:46;;;;;;;;;;;;;;;-2.33;100.00;97003.69;4976313;28;19914;-84
2023/01/29 17:46:11;;;;;;;;;;;;;;;-2.59;100.00;96999.56;4854009;29;19944;-84
2023/01/29 17:49:21;;;;;;;;;;;;;;;-2.55;100.00;97008.00;4829720;29;19920;-84
2023/01/29 18:06:50;;;;;;;;;;;;;;;-2.67;100.00;97005.03;4806433;29;19949;-83
2023/01/29 18:09:19;;;;;;;;;;;;;;;-2.74;100.00;97002.75;4906412;28;19977;-83
2023/01/29 18:11:53;;;;;;;;;;;;;;;-2.70;100.00;96997.44;4978731;28;19960;-81
2023/01/29 18:14:21;;;;;;;;;;;;;;;-2.69;100.00;96999.09;4982218;28;19964;-81
2023/01/29 18:17:08;;;;;;;;;;;;;;;-2.74;100.00;97001.03;4948436;28;19936;-86
2023/01/29 18:19:34;;;;;;;;;;;;;;;-2.80;100.00;97001.25;4951495;28;19917;-85
2023/01/29 18:22:20;;;;;;;;;;;;;;;-2.75;100.00;96998.50;4977482;28;20012;-88
2023/01/29 18:25:08;;;;;;;;;;;;;;;-2.82;100.00;96997.88;4963944;28;19918;-88
2023/01/29 18:31:10;;;;;;;;;;;;;;;-2.95;100.00;96988.94;4982106;28;19964;-88
2023/01/29 18:34:21;;;;;;;;;;;;;;;-3.01;100.00;96977.19;4976986;28;20001;-88
2023/01/29 18:37:38;;;;;;;;;;;;;;;-2.98;100.00;96983.94;4976348;28;20321;-88
2023/01/29 18:40:26;;;;;;;;;;;;;;;-3.02;100.00;96984.94;4964160;28;20004;-87
2023/01/29 18:43:19;;;;;;;;;;;;;;;-3.07;100.00;96979.97;4961509;28;20012;-87
2023/01/29 18:46:02;;;;;;;;;;;;;;;-3.17;100.00;96979.47;4966518;28;20369;-86
2023/01/29 18:48:29;;;;;;;;;;;;;;;-3.13;100.00;96982.78;4966702;28;19924;-85
2023/01/29 18:51:01;;;;;;;;;;;;;;;-3.20;100.00;96982.16;4959711;28;20397;-85
2023/01/29 18:53:34;;;;;;;;;;;;;;;-3.18;100.00;96987.28;4956153;28;20329;-86
2023/01/29 18:56:34;;;;;;;;;;;;;;;-3.25;100.00;96981.50;4967654;28;20348;-84
2023/01/29 18:59:12;;;;;;;;;;;;;;;-3.22;100.00;96988.25;4963068;28;19924;-86
2023/01/29 19:01:38;;;;;;;;;;;;;;;-3.32;100.00;97000.59;4974172;28;19918;-86
2023/01/29 19:04:04;;;;;;;;;;;;;;;-3.27;100.00;97006.44;4959197;28;19941;-85
2023/01/29 19:06:33;;;;;;;;;;;;;;;-3.26;100.00;97012.41;4992879;28;19992;-90
2023/01/29 19:09:20;;;;;;;;;;;;;;;-3.26;100.00;97013.25;4987192;28;19960;-87
2023/01/29 19:12:12;;;;;;;;;;;;;;;-3.30;100.00;97021.16;4971626;28;19968;-88
2023/01/29 19:15:04;;;;;;;;;;;;;;;-3.24;100.00;97016.63;4976251;28;19918;-91
2023/01/29 19:17:58;;;;;;;;;;;;;;;-3.16;100.00;97024.88;4991430;28;19917;-92
2023/01/29 19:20:58;;;;;;;;;;;;;;;-3.17;100.00;97017.22;4970367;28;19922;-88
2023/01/29 19:23:26;;;;;;;;;;;;;;;-3.21;100.00;97021.66;4951996;28;19922;-88
2023/01/29 19:25:55;;;;;;;;;;;;;;;-3.28;100.00;97015.06;4980687;28;20000;-90
2023/01/29 19:28:53;;;;;;;;;;;;;;;-3.28;100.00;97009.91;4960952;28;20016;-89
2023/01/29 19:31:19;;;;;;;;;;;;;;;-3.29;100.00;97017.66;4948624;28;19933;-85
2023/01/29 19:33:50;;;;;;;;;;;;;;;-3.32;100.00;97019.47;4951342;28;19922;-93
2023/01/29 19:36:17;;;;;;;;;;;;;;;-3.32;100.00;97022.06;4978714;28;19985;-88
2023/01/29 19:38:43;;;;;;;;;;;;;;;-3.36;100.00;97025.59;4987374;28;19918;-88
2023/01/29 19:41:09;;;;;;;;;;;;;;;-3.37;100.00;97015.38;4974990;28;19920;-90
2023/01/29 19:43:40;;;;;;;;;;;;;;;-3.35;100.00;97014.44;4956614;28;19964;-88
2023/01/29 19:46:12;;;;;;;;;;;;;;;-3.33;100.00;97016.94;4968294;28;19948;-91
2023/01/29 19:48:41;;;;;;;;;;;;;;;-3.39;100.00;97014.59;4985953;28;19924;-89
2023/01/29 19:51:08;;;;;;;;;;;;;;;-3.45;100.00;97015.66;4981337;28;19917;-90
2023/01/29 19:53:35;;;;;;;;;;;;;;;-3.42;100.00;97023.28;4962888;28;19949;-85
2023/01/29 19:56:08;;;;;;;;;;;;;;;-3.41;100.00;97013.81;4955628;28;19925;-90
2023/01/29 19:58:33;;;;;;;;;;;;;;;-3.47;100.00;97021.75;4974620;28;20025;-86
2023/01/29 20:01:00;;;;;;;;;;;;;;;-3.47;100.00;97025.16;4973570;28;19953;-89
2023/01/29 20:03:30;;;;;;;;;;;;;;;-3.53;100.00;97025.38;4983863;28;19924;-88
2023/01/29 20:06:03;;;;;;;;;;;;;;;-3.62;100.00;97031.69;4943862;28;19968;-90
2023/01/29 20:08:39;;;;;;;;;;;;;;;-3.56;100.00;97028.88;4976094;28;19914;-95
2023/01/29 20:11:05;;;;;;;;;;;;;;;-3.59;100.00;97026.44;4961320;28;20289;-93
2023/01/29 20:13:31;;;;;;;;;;;;;;;-3.61;100.00;97019.66;4980084;28;19914;-94
2023/01/29 20:16:01;;;;;;;;;;;;;;;-3.64;100.00;97018.03;4967083;28;19914;-95
2023/01/29 20:18:31;;;;;;;;;;;;;;;-3.61;100.00;97002.50;4983497;28;19963;-86
2023/01/29 20:21:03;;;;;;;;;;;;;;;-3.67;100.00;97013.00;4952592;28;19962;-85
2023/01/29 20:23:54;;;;;;;;;;;;;;;-3.58;100.00;96992.13;4983671;28;19914;-95
2023/01/29 20:26:21;;;;;;;;;;;;;;;-3.45;100.00;96997.66;4961315;28;19922;-86
2023/01/29 20:28:56;;;;;;;;;;;;;;;-3.45;100.00;96991.69;4983832;28;19914;-94
2023/01/29 20:31:22;;;;;;;;;;;;;;;-3.30;100.00;96991.13;4974951;28;19921;-94
2023/01/29 20:33:48;;;;;;;;;;;;;;;-3.36;100.00;96991.34;4977753;28;19925;-94
2023/01/29 20:36:19;;;;;;;;;;;;;;;-3.39;100.00;96987.13;4952441;28;19917;-86
2023/01/29 20:38:48;;;;;;;;;;;;;;;-3.39;100.00;96992.28;4984710;28;19913;-85
2023/01/29 20:41:15;;;;;;;;;;;;;;;-3.39;100.00;96986.28;4974856;28;19957;-86
2023/01/29 20:47:10;;;;;;;;;;;;;;;-3.44;100.00;96973.63;4984802;28;20429;-96
2023/01/29 20:52:38;;;;;;;;;;;;;;;-3.53;100.00;96960.25;4965684;28;20313;-95
2023/01/29 20:58:32;;;;;;;;;;;;;;;-3.57;100.00;96955.22;4985447;28;20298;-96
2023/01/29 21:01:00;;;;;;;;;;;;;;;-3.52;100.00;96954.22;4983624;28;19917;-86
2023/01/29 21:03:42;;;;;;;;;;;;;;;-3.56;100.00;96954.31;4978297;28;19937;-86
2023/01/29 21:06:10;;;;;;;;;;;;;;;-3.54;100.00;96950.88;4966225;28;19921;-86
2023/01/29 21:08:38;;;;;;;;;;;;;;;-3.59;100.00;96944.19;4979997;28;19928;-86
2023/01/29 21:14:38;;;;;;;;;;;;;;;-3.56;100.00;96933.75;5001287;28;20441;-94
2023/01/29 21:17:04;;;;;;;;;;;;;;;-3.52;100.00;96938.78;4985204;28;19921;-95
2023/01/29 21:19:30;;;;;;;;;;;;;;;-3.49;100.00;96938.66;4967997;28;19960;-86
2023/01/29 21:21:58;;;;;;;;;;;;;;;-3.51;100.00;96938.75;4971215;28;20236;-86
2023/01/29 21:24:25;;;;;;;;;;;;;;;-3.51;100.00;96940.47;4960391;28;19925;-86
2023/01/29 21:26:51;;;;;;;;;;;;;;;-3.60;100.00;96936.50;4954150;28;19960;-85
2023/01/29 21:29:17;;;;;;;;;;;;;;;-3.61;100.00;96943.38;4971930;28;19943;-95
2023/01/29 21:35:12;;;;;;;;;;;;;;;-3.67;100.00;96953.03;4996070;28;19929;-95
2023/01/29 21:37:37;;;;;;;;;;;;;;;-3.65;100.00;96952.09;4966844;28;19913;-86
2023/01/29 21:40:07;;;;;;;;;;;;;;;-3.69;100.00;96962.53;4981315;28;19921;-86
2023/01/29 21:45:17;;;;;;;;;;;;;;;-3.80;100.00;96962.91;4982943;28;19984;-86
2023/01/29 21:47:42;;;;;;;;;;;;;;;-3.81;100.00;96969.78;4945793;28;20456;-86
2023/01/29 21:50:08;;;;;;;;;;;;;;;-3.82;100.00;96964.72;4976948;28;19918;-86
2023/01/29 21:52:39;;;;;;;;;;;;;;;-3.83;100.00;96963.00;4979887;28;19928;-85
2023/01/29 21:55:09;;;;;;;;;;;;;;;-3.86;100.00;96960.53;4961848;28;19952;-85
2023/01/29 21:57:35;;;;;;;;;;;;;;;-3.91;100.00;96959.88;4942236;28;19932;-86
2023/01/29 22:00:03;;;;;;;;;;;;;;;-3.97;100.00;96952.38;4987963;28;20332;-86
2023/01/29 22:02:30;;;;;;;;;;;;;;;-3.91;100.00;96950.44;4987504;28;19918;-86
2023/01/29 22:04:59;;;;;;;;;;;;;;;-3.90;100.00;96946.13;4949398;28;19918;-84
2023/01/29 22:07:25;;;;;;;;;;;;;;;-3.92;100.00;96941.06;4957331;28;19972;-86
2023/01/29 22:09:52;;;;;;;;;;;;;;;-3.87;100.00;96938.31;4953472;28;19917;-87
2023/01/29 22:12:24;;;;;;;;;;;;;;;-3.86;100.00;96942.56;4969791;28;19918;-87
2023/01/29 22:14:59;;;;;;;;;;;;;;;-3.81;100.00;96948.38;4954718;28;20679;-86
2023/01/29 22:17:25;;;;;;;;;;;;;;;-3.84;100.00;96935.66;4963944;28;19936;-86
2023/01/29 22:19:52;;;;;;;;;;;;;;;-3.84;100.00;96938.22;4958565;28;20437;-85
2023/01/29 22:22:18;;;;;;;;;;;;;;;-3.86;100.00;96948.53;4971614;28;20092;-86
2023/01/29 22:24:45;;;;;;;;;;;;;;;-3.82;100.00;96951.88;4963454;28;19922;-86
2023/01/29 22:27:11;;;;;;;;;;;;;;;-3.85;100.00;96952.81;4951728;28;19914;-86
2023/01/29 22:29:37;;;;;;;;;;;;;;;-3.92;100.00;96951.34;4966996;28;19910;-86
2023/01/29 22:32:05;;;;;;;;;;;;;;;-3.85;100.00;96949.41;4981643;28;20432;-86
2023/01/29 22:34:31;;;;;;;;;;;;;;;-3.84;100.00;96943.34;4983241;28;19921;-86
2023/01/29 22:36:57;;;;;;;;;;;;;;;-3.87;100.00;96935.75;4964988;28;20354;-86
2023/01/29 22:39:22;;;;;;;;;;;;;;;-3.86;100.00;96924.56;4978978;28;20060;-86
2023/01/29 22:41:51;;;;;;;;;;;;;;;-3.90;100.00;96939.25;4973358;28;19931;-86
2023/01/29 22:44:16;;;;;;;;;;;;;;;-3.94;100.00;96932.56;4982443;28;19914;-87
2023/01/29 22:46:43;;;;;;;;;;;;;;;-3.95;100.00;96927.50;4981161;28;19920;-86
2023/01/29 22:49:09;;;;;;;;;;;;;;;-4.01;100.00;96914.84;4969733;28;19926;-87
2023/01/29 22:51:37;;;;;;;;;;;;;;;-3.95;100.00;96922.34;4961365;28;19917;-87
2023/01/29 22:54:03;;;;;;;;;;;;;;;-3.96;100.00;96912.94;4952246;28;20004;-85
2023/01/29 22:56:29;;;;;;;;;;;;;;;-4.01;100.00;96907.16;4959556;28;20378;-87
2023/01/29 22:58:56;;;;;;;;;;;;;;;-4.06;100.00;96905.59;4975495;28;19917;-85
2023/01/29 23:01:29;;;;;;;;;;;;;;;-4.00;100.00;96903.69;4989915;28;19918;-86
2023/01/29 23:03:55;;;;;;;;;;;;;;;-3.99;100.00;96884.78;4976577;28;19902;-87
2023/01/29 23:06:20;;;;;;;;;;;;;;;-3.99;100.00;96877.09;4986891;28;19929;-86
2023/01/29 23:08:46;;;;;;;;;;;;;;;-3.99;100.00;96869.38;4965463;28;19914;-87
2023/01/29 23:11:14;;;;;;;;;;;;;;;-3.99;100.00;96861.66;4976477;28;20374;-86
2023/01/29 23:13:43;;;;;;;;;;;;;;;-3.97;100.00;96844.47;4970897;28;20560;-86
2023/01/29 23:16:24;;;;;;;;;;;;;;;-4.05;100.00;96840.47;4971425;28;19921;-87
2023/01/29 23:18:53;;;;;;;;;;;;;;;-4.18;100.00;96835.81;4977026;28;19914;-87
2023/01/29 23:21:20;;;;;;;;;;;;;;;-4.11;100.00;96827.00;4986461;28;19963;-86
2023/01/29 23:23:46;;;;;;;;;;;;;;;-4.18;100.00;96840.97;4968718;28;19917;-87
2023/01/29 23:28:56;;;;;;;;;;;;;;;-4.15;100.00;96839.13;4964091;28;20027;-87
2023/01/29 23:31:21;;;;;;;;;;;;;;;-4.06;100.00;96836.22;4957079;28;19953;-87
2023/01/29 23:33:54;;;;;;;;;;;;;;;-4.09;100.00;96825.19;4969765;28;20377;-87
2023/01/29 23:36:19;;;;;;;;;;;;;;;-3.98;100.00;96829.97;4965717;28;19981;-86
2023/01/29 23:38:45;;;;;;;;;;;;;;;-4.06;100.00;96820.81;4976313;28;19933;-87
2023/01/29 23:41:10;;;;;;;;;;;;;;;-4.10;100.00;96829.50;4967002;28;19922;-87
2023/01/29 23:43:36;;;;;;;;;;;;;;;-4.07;100.00;96829.41;4977874;28;20349;-86
2023/01/29 23:46:01;;;;;;;;;;;;;;;-4.06;100.00;96823.38;4958943;28;19917;-87
2023/01/29 23:48:27;;;;;;;;;;;;;;;-3.98;100.00;96824.84;4987412;28;19914;-86
2023/01/29 23:50:52;;;;;;;;;;;;;;;-4.03;100.00;96823.25;4984653;28;19914;-87
2023/01/29 23:53:26;;;;;;;;;;;;;;;-4.01;100.00;96814.66;4961382;28;20381;-87
2023/01/29 23:55:56;;;;;;;;;;;;;;;-4.01;100.00;96822.38;4969883;28;19914;-87
2023/01/29 23:58:26;;;;;;;;;;;;;;;-4.03;100.00;96817.28;4972878;28;19957;-86
